createdAt,value
2019-02-02T00:00:43.631Z,6.47
2019-02-02T00:01:52.451Z,6.48
2019-02-02T00:02:57.637Z,6.48
2019-02-02T00:04:03.284Z,6.49
2019-02-02T00:05:08.890Z,6.48
2019-02-02T00:06:13.982Z,6.47
2019-02-02T00:07:18.993Z,6.47
2019-02-02T00:08:24.265Z,6.47
2019-02-02T00:09:29.631Z,6.47
2019-02-02T00:10:35.755Z,6.47
2019-02-02T00:11:41.128Z,6.50
2019-02-02T00:12:46.204Z,6.50
2019-02-02T00:13:51.250Z,6.51
2019-02-02T00:14:56.297Z,6.49
2019-02-02T00:16:01.770Z,6.49
2019-02-02T00:17:07.272Z,6.47
2019-02-02T00:18:12.657Z,6.46
2019-02-02T00:19:17.971Z,6.44
2019-02-02T00:20:23.157Z,6.43
2019-02-02T00:21:28.358Z,6.43
2019-02-02T00:22:33.376Z,6.43
2019-02-02T00:23:38.485Z,6.46
2019-02-02T00:24:44.009Z,6.47
2019-02-02T00:25:49.384Z,6.49
2019-02-02T00:26:54.894Z,6.49
2019-02-02T00:28:00.361Z,6.52
2019-02-02T00:29:05.753Z,6.54
2019-02-02T00:30:13.145Z,6.57
2019-02-02T00:31:18.153Z,6.59
2019-02-02T00:32:23.175Z,6.59
2019-02-02T00:33:28.175Z,6.59
2019-02-02T00:34:33.463Z,6.58
2019-02-02T00:35:38.612Z,6.59
2019-02-02T00:36:43.574Z,6.58
2019-02-02T00:37:48.890Z,6.54
2019-02-02T00:38:54.208Z,6.54
2019-02-02T00:39:59.460Z,6.53
2019-02-02T00:41:04.577Z,6.55
2019-02-02T00:42:09.938Z,6.56
2019-02-02T00:43:15.431Z,6.57
2019-02-02T00:44:20.439Z,6.57
2019-02-02T00:45:25.548Z,6.55
2019-02-02T00:46:30.894Z,6.54
2019-02-02T00:47:36.278Z,6.52
2019-02-02T00:48:41.597Z,6.51
2019-02-02T00:49:46.904Z,6.49
2019-02-02T00:50:52.370Z,6.48
2019-02-02T00:51:58.000Z,6.47
2019-02-02T00:53:03.514Z,6.48
2019-02-02T00:54:08.832Z,6.48
2019-02-02T00:55:15.183Z,6.48
2019-02-02T00:56:20.177Z,6.50
2019-02-02T00:57:25.461Z,6.50
2019-02-02T00:58:30.477Z,6.52
2019-02-02T00:59:35.483Z,6.54
2019-02-02T01:00:40.476Z,6.57
2019-02-02T01:01:45.747Z,6.59
2019-02-02T01:02:50.838Z,6.62
2019-02-02T01:03:56.165Z,6.65
2019-02-02T01:05:01.582Z,6.68
2019-02-02T01:06:07.184Z,6.69
2019-02-02T01:07:12.839Z,6.68
2019-02-02T01:08:17.912Z,6.68
2019-02-02T01:09:25.757Z,6.65
2019-02-02T01:10:32.486Z,6.65
2019-02-02T01:11:37.631Z,6.63
2019-02-02T01:12:43.081Z,6.65
2019-02-02T01:13:48.139Z,6.65
2019-02-02T01:14:53.130Z,6.66
2019-02-02T01:15:58.174Z,6.65
2019-02-02T01:17:03.242Z,6.65
2019-02-02T01:18:08.973Z,6.64
2019-02-02T01:19:14.369Z,6.63
2019-02-02T01:20:20.985Z,6.63
2019-02-02T01:21:26.372Z,6.62
2019-02-02T01:22:31.672Z,6.61
2019-02-02T01:23:36.689Z,6.61
2019-02-02T01:24:43.209Z,6.59
2019-02-02T01:25:48.243Z,6.61
2019-02-02T01:26:53.637Z,6.62
2019-02-02T01:28:05.259Z,6.64
2019-02-02T01:29:05.874Z,6.66
2019-02-02T01:30:12.989Z,6.66
2019-02-02T01:31:18.090Z,6.67
2019-02-02T01:32:23.467Z,6.66
2019-02-02T01:33:28.570Z,6.65
2019-02-02T01:34:33.644Z,6.62
2019-02-02T01:35:39.070Z,6.60
2019-02-02T01:36:44.191Z,6.58
2019-02-02T01:37:50.855Z,6.56
2019-02-02T01:38:56.518Z,6.52
2019-02-02T01:40:01.835Z,6.51
2019-02-02T01:41:07.516Z,6.50
2019-02-02T01:42:12.728Z,6.48
2019-02-02T01:43:17.879Z,6.47
2019-02-02T01:44:22.891Z,6.46
2019-02-02T01:45:28.415Z,6.44
2019-02-02T01:46:33.864Z,6.42
2019-02-02T01:47:39.025Z,6.42
2019-02-02T01:48:44.185Z,6.41
2019-02-02T01:49:49.820Z,6.41
2019-02-02T01:50:55.518Z,6.40
2019-02-02T01:52:00.536Z,6.40
2019-02-02T01:53:05.996Z,6.40
2019-02-02T01:54:11.071Z,6.38
2019-02-02T01:55:16.463Z,6.39
2019-02-02T01:56:21.460Z,6.37
2019-02-02T01:57:27.873Z,6.38
2019-02-02T01:58:32.985Z,6.37
2019-02-02T01:59:38.034Z,6.38
2019-02-02T02:00:43.025Z,6.40
2019-02-02T02:01:48.004Z,6.40
2019-02-02T02:02:53.320Z,6.41
2019-02-02T02:03:58.578Z,6.39
2019-02-02T02:05:03.704Z,6.38
2019-02-02T02:06:09.137Z,6.37
2019-02-02T02:07:14.165Z,6.37
2019-02-02T02:08:19.554Z,6.36
2019-02-02T02:09:24.506Z,6.36
2019-02-02T02:10:29.889Z,6.36
2019-02-02T02:11:35.326Z,6.34
2019-02-02T02:12:40.992Z,6.32
2019-02-02T02:13:46.582Z,6.29
2019-02-02T02:14:51.605Z,6.26
2019-02-02T02:15:56.657Z,6.22
2019-02-02T02:17:01.613Z,6.21
2019-02-02T02:18:07.163Z,6.19
2019-02-02T02:19:12.182Z,6.19
2019-02-02T02:20:18.437Z,6.16
2019-02-02T02:21:23.815Z,6.16
2019-02-02T02:22:28.868Z,6.15
2019-02-02T02:23:34.192Z,6.16
2019-02-02T02:24:39.628Z,6.15
2019-02-02T02:25:44.573Z,6.15
2019-02-02T02:26:49.915Z,6.15
2019-02-02T02:27:54.910Z,6.14
2019-02-02T02:29:00.344Z,6.13
2019-02-02T02:30:06.833Z,6.12
2019-02-02T02:31:12.240Z,6.12
2019-02-02T02:32:17.238Z,6.13
2019-02-02T02:33:22.619Z,6.15
2019-02-02T02:34:27.900Z,6.18
2019-02-02T02:35:33.299Z,6.20
2019-02-02T02:36:38.481Z,6.19
2019-02-02T02:37:44.177Z,6.18
2019-02-02T02:38:52.833Z,6.17
2019-02-02T02:39:57.957Z,6.16
2019-02-02T02:41:03.003Z,6.16
2019-02-02T02:42:08.298Z,6.17
2019-02-02T02:43:13.433Z,6.19
2019-02-02T02:44:18.736Z,6.20
2019-02-02T02:45:23.748Z,6.21
2019-02-02T02:46:28.696Z,6.20
2019-02-02T02:47:34.529Z,6.21
2019-02-02T02:48:39.853Z,6.23
2019-02-02T02:49:45.368Z,6.24
2019-02-02T02:50:50.677Z,6.26
2019-02-02T02:51:56.425Z,6.25
2019-02-02T02:53:01.346Z,6.27
2019-02-02T02:54:07.253Z,6.27
2019-02-02T02:55:13.212Z,6.30
2019-02-02T02:56:18.908Z,6.29
2019-02-02T02:57:24.234Z,6.29
2019-02-02T02:58:40.999Z,6.29
2019-02-02T02:59:37.480Z,6.31
2019-02-02T03:00:42.573Z,6.32
2019-02-02T03:01:47.645Z,6.33
2019-02-02T03:02:52.858Z,6.34
2019-02-02T03:03:58.065Z,6.33
2019-02-02T03:05:03.099Z,6.34
2019-02-02T03:06:08.086Z,6.32
2019-02-02T03:07:13.028Z,6.29
2019-02-02T03:08:18.131Z,6.29
2019-02-02T03:09:26.170Z,6.29
2019-02-02T03:10:31.280Z,6.31
2019-02-02T03:11:36.312Z,6.31
2019-02-02T03:12:41.804Z,6.33
2019-02-02T03:13:47.525Z,6.36
2019-02-02T03:14:52.770Z,6.36
2019-02-02T03:15:57.795Z,6.35
2019-02-02T03:17:03.172Z,6.32
2019-02-02T03:18:08.255Z,6.28
2019-02-02T03:19:14.046Z,6.27
2019-02-02T03:20:19.462Z,6.28
2019-02-02T03:21:24.759Z,6.29
2019-02-02T03:22:30.342Z,6.33
2019-02-02T03:23:35.671Z,6.34
2019-02-02T03:24:40.597Z,6.38
2019-02-02T03:25:47.172Z,6.41
2019-02-02T03:26:52.340Z,6.43
2019-02-02T03:27:57.419Z,6.44
2019-02-02T03:29:03.092Z,6.47
2019-02-02T03:30:10.828Z,6.46
2019-02-02T03:31:15.860Z,6.47
2019-02-02T03:32:24.009Z,6.46
2019-02-02T03:33:29.334Z,6.45
2019-02-02T03:34:34.376Z,6.43
2019-02-02T03:35:39.409Z,6.41
2019-02-02T03:36:44.744Z,6.38
2019-02-02T03:37:50.087Z,6.37
2019-02-02T03:38:55.398Z,6.36
2019-02-02T03:40:00.440Z,6.35
2019-02-02T03:41:06.004Z,6.31
2019-02-02T03:42:11.020Z,6.32
2019-02-02T03:43:16.674Z,6.34
2019-02-02T03:44:22.161Z,6.37
2019-02-02T03:45:27.147Z,6.40
2019-02-02T03:46:32.728Z,6.41
2019-02-02T03:47:37.990Z,6.41
2019-02-02T03:48:43.772Z,6.40
2019-02-02T03:49:48.974Z,6.41
2019-02-02T03:50:54.066Z,6.41
2019-02-02T03:51:59.035Z,6.41
2019-02-02T03:53:04.235Z,6.42
2019-02-02T03:54:09.661Z,6.41
2019-02-02T03:55:15.210Z,6.39
2019-02-02T03:56:20.325Z,6.36
2019-02-02T03:57:25.341Z,6.30
2019-02-02T03:58:30.513Z,6.24
2019-02-02T03:59:35.939Z,6.22
2019-02-02T04:00:41.313Z,6.20
2019-02-02T04:01:47.446Z,6.18
2019-02-02T04:02:52.461Z,6.15
2019-02-02T04:03:57.750Z,6.14
2019-02-02T04:05:02.997Z,6.13
2019-02-02T04:06:07.997Z,6.13
2019-02-02T04:07:13.112Z,6.13
2019-02-02T04:08:18.059Z,6.11
2019-02-02T04:09:23.150Z,6.11
2019-02-02T04:10:28.390Z,6.11
2019-02-02T04:11:33.967Z,6.11
2019-02-02T04:12:39.090Z,6.09
2019-02-02T04:13:44.286Z,6.07
2019-02-02T04:14:49.276Z,6.08
2019-02-02T04:15:54.205Z,6.06
2019-02-02T04:16:59.497Z,6.04
2019-02-02T04:18:04.640Z,6.04
2019-02-02T04:19:09.818Z,6.05
2019-02-02T04:20:16.981Z,6.04
2019-02-02T04:21:22.030Z,6.03
2019-02-02T04:22:27.035Z,6.01
2019-02-02T04:23:32.350Z,6.00
2019-02-02T04:24:37.630Z,5.99
2019-02-02T04:25:43.342Z,5.99
2019-02-02T04:26:49.031Z,6.01
2019-02-02T04:27:54.388Z,6.02
2019-02-02T04:28:59.736Z,6.03
2019-02-02T04:30:07.104Z,6.05
2019-02-02T04:31:12.599Z,6.06
2019-02-02T04:32:18.608Z,6.06
2019-02-02T04:33:23.769Z,6.06
2019-02-02T04:34:28.982Z,6.05
2019-02-02T04:35:34.501Z,6.05
2019-02-02T04:36:39.531Z,6.04
2019-02-02T04:37:44.661Z,6.02
2019-02-02T04:38:50.348Z,6.00
2019-02-02T04:39:55.568Z,6.00
2019-02-02T04:41:00.615Z,5.99
2019-02-02T04:42:05.687Z,5.98
2019-02-02T04:43:12.201Z,5.99
2019-02-02T04:44:17.167Z,6.00
2019-02-02T04:45:22.415Z,6.00
2019-02-02T04:46:27.437Z,6.01
2019-02-02T04:47:33.104Z,5.99
2019-02-02T04:48:38.108Z,5.96
2019-02-02T04:49:43.297Z,5.94
2019-02-02T04:50:49.015Z,5.90
2019-02-02T04:51:54.433Z,5.87
2019-02-02T04:52:59.525Z,5.85
2019-02-02T04:54:04.878Z,5.83
2019-02-02T04:55:10.740Z,5.83
2019-02-02T04:56:15.721Z,5.83
2019-02-02T04:57:20.777Z,5.84
2019-02-02T04:58:26.195Z,5.85
2019-02-02T04:59:31.490Z,5.84
2019-02-02T05:00:36.881Z,5.84
2019-02-02T05:01:42.266Z,5.84
2019-02-02T05:02:47.474Z,5.85
2019-02-02T05:03:54.252Z,5.87
2019-02-02T05:04:59.282Z,5.90
2019-02-02T05:06:04.280Z,5.90
2019-02-02T05:07:09.350Z,5.89
2019-02-02T05:08:14.558Z,5.88
2019-02-02T05:09:19.784Z,5.89
2019-02-02T05:10:25.099Z,5.88
2019-02-02T05:11:30.864Z,5.87
2019-02-02T05:12:38.698Z,5.88
2019-02-02T05:13:43.645Z,5.88
2019-02-02T05:14:48.733Z,5.90
2019-02-02T05:15:53.857Z,5.91
2019-02-02T05:16:59.975Z,5.92
2019-02-02T05:18:05.385Z,5.92
2019-02-02T05:19:10.410Z,5.93
2019-02-02T05:20:15.967Z,5.92
2019-02-02T05:21:21.002Z,5.93
2019-02-02T05:22:26.084Z,5.91
2019-02-02T05:23:31.321Z,5.91
2019-02-02T05:24:36.878Z,5.91
2019-02-02T05:25:41.917Z,5.91
2019-02-02T05:26:47.711Z,5.91
2019-02-02T05:27:53.103Z,5.90
2019-02-02T05:28:58.222Z,5.89
2019-02-02T05:30:03.285Z,5.88
2019-02-02T05:31:08.383Z,5.88
2019-02-02T05:32:13.469Z,5.87
2019-02-02T05:33:18.838Z,5.86
2019-02-02T05:34:24.014Z,5.87
2019-02-02T05:35:29.503Z,5.88
2019-02-02T05:36:34.794Z,5.89
2019-02-02T05:37:40.684Z,5.92
2019-02-02T05:38:45.704Z,5.92
2019-02-02T05:39:50.972Z,5.91
2019-02-02T05:40:56.208Z,5.90
2019-02-02T05:42:01.725Z,5.89
2019-02-02T05:43:07.643Z,5.88
2019-02-02T05:44:12.719Z,5.87
2019-02-02T05:45:19.584Z,5.86
2019-02-02T05:46:24.540Z,5.83
2019-02-02T05:47:29.862Z,5.82
2019-02-02T05:48:35.280Z,5.79
2019-02-02T05:49:40.201Z,5.78
2019-02-02T05:50:45.483Z,5.76
2019-02-02T05:51:50.464Z,5.75
2019-02-02T05:52:56.174Z,5.75
2019-02-02T05:54:01.193Z,5.76
2019-02-02T05:55:08.152Z,5.76
2019-02-02T05:56:13.163Z,5.76
2019-02-02T05:57:18.173Z,5.75
2019-02-02T05:58:23.608Z,5.75
2019-02-02T05:59:28.954Z,5.77
2019-02-02T06:00:53.999Z,5.79
2019-02-02T06:01:59.046Z,5.79
2019-02-02T06:03:04.487Z,5.81
2019-02-02T06:04:09.731Z,5.82
2019-02-02T06:05:14.848Z,5.83
2019-02-02T06:06:20.981Z,5.83
2019-02-02T06:07:26.252Z,5.85
2019-02-02T06:08:31.236Z,5.86
2019-02-02T06:09:36.619Z,5.86
2019-02-02T06:10:44.939Z,5.88
2019-02-02T06:11:50.342Z,5.86
2019-02-02T06:12:55.945Z,5.84
2019-02-02T06:14:01.127Z,5.83
2019-02-02T06:15:06.551Z,5.82
2019-02-02T06:16:11.907Z,5.81
2019-02-02T06:17:16.846Z,5.81
2019-02-02T06:18:21.881Z,5.79
2019-02-02T06:19:27.151Z,5.77
2019-02-02T06:20:32.542Z,5.76
2019-02-02T06:21:37.789Z,5.75
2019-02-02T06:22:43.130Z,5.74
2019-02-02T06:23:48.204Z,5.74
2019-02-02T06:24:53.523Z,5.74
2019-02-02T06:25:58.538Z,5.75
2019-02-02T06:27:03.562Z,5.75
2019-02-02T06:28:08.953Z,5.76
2019-02-02T06:29:13.936Z,5.76
2019-02-02T06:30:19.546Z,5.76
2019-02-02T06:31:24.624Z,5.76
2019-02-02T06:32:29.603Z,5.75
2019-02-02T06:33:35.026Z,5.76
2019-02-02T06:34:40.018Z,5.77
2019-02-02T06:35:45.664Z,5.77
2019-02-02T06:36:50.667Z,5.79
2019-02-02T06:37:55.946Z,5.82
2019-02-02T06:39:01.017Z,5.83
2019-02-02T06:40:06.388Z,5.84
2019-02-02T06:41:11.350Z,5.85
2019-02-02T06:42:16.706Z,5.87
2019-02-02T06:43:21.711Z,5.86
2019-02-02T06:44:26.956Z,5.86
2019-02-02T06:45:34.164Z,5.88
2019-02-02T06:46:43.562Z,5.90
2019-02-02T06:47:46.392Z,5.92
2019-02-02T06:48:51.767Z,5.92
2019-02-02T06:49:57.004Z,5.93
2019-02-02T06:51:02.483Z,5.94
2019-02-02T06:52:08.066Z,5.94
2019-02-02T06:53:13.918Z,5.95
2019-02-02T06:54:18.910Z,5.94
2019-02-02T06:55:24.383Z,5.95
2019-02-02T06:56:29.311Z,5.95
2019-02-02T06:57:34.992Z,5.97
2019-02-02T06:58:40.291Z,5.97
2019-02-02T06:59:45.330Z,5.97
2019-02-02T07:00:50.815Z,5.95
2019-02-02T07:01:58.106Z,5.95
2019-02-02T07:03:03.220Z,5.94
2019-02-02T07:04:08.523Z,5.93
2019-02-02T07:05:14.510Z,5.94
2019-02-02T07:06:19.527Z,5.93
2019-02-02T07:07:24.531Z,5.93
2019-02-02T07:08:30.541Z,5.94
2019-02-02T07:09:36.889Z,5.94
2019-02-02T07:10:41.963Z,5.95
2019-02-02T07:11:46.913Z,5.96
2019-02-02T07:12:52.252Z,5.96
2019-02-02T07:13:57.948Z,5.96
2019-02-02T07:15:02.981Z,5.97
2019-02-02T07:16:08.152Z,6.00
2019-02-02T07:17:13.527Z,5.98
2019-02-02T07:18:19.003Z,5.98
2019-02-02T07:19:24.703Z,5.99
2019-02-02T07:20:30.111Z,5.97
2019-02-02T07:21:35.487Z,5.97
2019-02-02T07:22:40.576Z,5.98
2019-02-02T07:23:45.854Z,5.98
2019-02-02T07:24:50.853Z,5.98
2019-02-02T07:25:55.864Z,5.97
2019-02-02T07:27:00.967Z,5.96
2019-02-02T07:28:06.040Z,5.96
2019-02-02T07:29:10.964Z,5.95
2019-02-02T07:30:28.188Z,5.95
2019-02-02T07:31:27.689Z,5.97
2019-02-02T07:32:33.989Z,6.00
2019-02-02T07:33:39.047Z,6.00
2019-02-02T07:34:44.165Z,6.02
2019-02-02T07:35:49.219Z,6.03
2019-02-02T07:36:54.207Z,6.04
2019-02-02T07:37:59.256Z,6.04
2019-02-02T07:39:07.487Z,6.03
2019-02-02T07:40:14.650Z,6.03
2019-02-02T07:41:19.600Z,6.05
2019-02-02T07:42:24.606Z,6.06
2019-02-02T07:43:29.690Z,6.06
2019-02-02T07:44:34.954Z,6.06
2019-02-02T07:45:40.006Z,6.06
2019-02-02T07:46:44.934Z,6.08
2019-02-02T07:47:50.011Z,6.09
2019-02-02T07:48:55.049Z,6.11
2019-02-02T07:50:00.054Z,6.12
2019-02-02T07:51:05.580Z,6.15
2019-02-02T07:52:10.873Z,6.16
2019-02-02T07:53:18.612Z,6.17
2019-02-02T07:54:23.934Z,6.16
2019-02-02T07:55:29.177Z,6.16
2019-02-02T07:56:34.822Z,6.17
2019-02-02T07:57:40.065Z,6.19
2019-02-02T07:58:45.349Z,6.20
2019-02-02T07:59:50.500Z,6.21
2019-02-02T08:00:55.618Z,6.22
2019-02-02T08:02:00.892Z,6.22
2019-02-02T08:03:09.177Z,6.22
2019-02-02T08:04:14.263Z,6.20
2019-02-02T08:05:19.944Z,6.19
2019-02-02T08:06:24.942Z,6.18
2019-02-02T08:07:29.950Z,6.18
2019-02-02T08:08:35.056Z,6.16
2019-02-02T08:09:40.045Z,6.16
2019-02-02T08:10:46.586Z,6.16
2019-02-02T08:11:51.778Z,6.15
2019-02-02T08:12:57.051Z,6.14
2019-02-02T08:14:02.190Z,6.14
2019-02-02T08:15:09.347Z,6.14
2019-02-02T08:16:14.288Z,6.13
2019-02-02T08:17:19.241Z,6.13
2019-02-02T08:18:24.540Z,6.14
2019-02-02T08:19:29.811Z,6.15
2019-02-02T08:20:35.114Z,6.16
2019-02-02T08:21:40.221Z,6.16
2019-02-02T08:22:45.438Z,6.19
2019-02-02T08:23:50.773Z,6.18
2019-02-02T08:24:56.061Z,6.18
2019-02-02T08:26:01.068Z,6.18
2019-02-02T08:27:06.430Z,6.18
2019-02-02T08:28:11.388Z,6.18
2019-02-02T08:29:16.755Z,6.18
2019-02-02T08:30:26.897Z,6.18
2019-02-02T08:31:32.495Z,6.18
2019-02-02T08:32:37.892Z,6.18
2019-02-02T08:33:45.336Z,6.18
2019-02-02T08:34:49.998Z,6.18
2019-02-02T08:35:55.389Z,6.18
2019-02-02T08:37:00.453Z,6.19
2019-02-02T08:38:06.430Z,6.18
2019-02-02T08:39:11.538Z,6.18
2019-02-02T08:40:17.330Z,6.20
2019-02-02T08:41:22.786Z,6.19
2019-02-02T08:42:27.890Z,6.17
2019-02-02T08:43:33.236Z,6.17
2019-02-02T08:44:38.436Z,6.15
2019-02-02T08:45:44.225Z,6.15
2019-02-02T08:46:49.259Z,6.15
2019-02-02T08:47:54.565Z,6.13
2019-02-02T08:48:59.780Z,6.13
2019-02-02T08:50:07.383Z,6.12
2019-02-02T08:51:12.872Z,6.12
2019-02-02T08:52:18.423Z,6.11
2019-02-02T08:53:24.173Z,6.10
2019-02-02T08:54:29.117Z,6.11
2019-02-02T08:55:35.471Z,6.10
2019-02-02T08:56:40.544Z,6.11
2019-02-02T08:57:46.264Z,6.10
2019-02-02T08:58:51.220Z,6.10
2019-02-02T08:59:59.752Z,6.08
2019-02-02T09:01:04.934Z,6.06
2019-02-02T09:02:10.053Z,6.06
2019-02-02T09:03:34.206Z,6.05
2019-02-02T09:04:39.328Z,6.04
2019-02-02T09:05:44.486Z,6.05
2019-02-02T09:06:49.882Z,6.07
2019-02-02T09:07:55.287Z,6.06
2019-02-02T09:09:00.342Z,6.07
2019-02-02T09:10:08.341Z,6.08
2019-02-02T09:11:13.717Z,6.10
2019-02-02T09:12:19.146Z,6.11
2019-02-02T09:13:25.412Z,6.12
2019-02-02T09:14:30.454Z,6.13
2019-02-02T09:15:36.080Z,6.14
2019-02-02T09:16:41.377Z,6.14
2019-02-02T09:17:46.577Z,6.14
2019-02-02T09:18:52.265Z,6.17
2019-02-02T09:19:57.194Z,6.19
2019-02-02T09:21:02.267Z,6.21
2019-02-02T09:22:07.375Z,6.21
2019-02-02T09:23:12.699Z,6.23
2019-02-02T09:24:17.666Z,6.25
2019-02-02T09:25:23.071Z,6.25
2019-02-02T09:26:28.067Z,6.27
2019-02-02T09:27:33.541Z,6.28
2019-02-02T09:28:38.543Z,6.30
2019-02-02T09:29:44.147Z,6.31
2019-02-02T09:30:49.278Z,6.33
2019-02-02T09:31:54.361Z,6.35
2019-02-02T09:32:59.450Z,6.34
2019-02-02T09:34:04.578Z,6.34
2019-02-02T09:35:09.955Z,6.35
2019-02-02T09:36:16.872Z,6.37
2019-02-02T09:37:22.032Z,6.36
2019-02-02T09:38:27.077Z,6.37
2019-02-02T09:39:32.346Z,6.36
2019-02-02T09:40:37.777Z,6.36
2019-02-02T09:41:43.224Z,6.36
2019-02-02T09:42:48.449Z,6.35
2019-02-02T09:43:53.751Z,6.33
2019-02-02T09:44:58.750Z,6.32
2019-02-02T09:46:04.775Z,6.31
2019-02-02T09:47:09.910Z,6.29
2019-02-02T09:48:14.904Z,6.32
2019-02-02T09:49:20.031Z,6.32
2019-02-02T09:50:25.543Z,6.31
2019-02-02T09:51:30.589Z,6.30
2019-02-02T09:52:36.407Z,6.28
2019-02-02T09:53:41.837Z,6.29
2019-02-02T09:54:47.212Z,6.28
2019-02-02T09:55:52.561Z,6.25
2019-02-02T09:56:57.924Z,6.23
2019-02-02T09:58:08.876Z,6.21
2019-02-02T09:59:14.012Z,6.20
2019-02-02T10:00:24.553Z,6.20
2019-02-02T10:01:29.846Z,6.20
2019-02-02T10:02:34.988Z,6.20
2019-02-02T10:03:40.099Z,6.17
2019-02-02T10:04:45.761Z,6.14
2019-02-02T10:05:50.975Z,6.15
2019-02-02T10:06:56.217Z,6.14
2019-02-02T10:08:01.331Z,6.12
2019-02-02T10:09:09.658Z,6.12
2019-02-02T10:10:19.947Z,6.13
2019-02-02T10:11:26.270Z,6.15
2019-02-02T10:12:31.831Z,6.15
2019-02-02T10:13:37.096Z,6.15
2019-02-02T10:14:43.220Z,6.14
2019-02-02T10:15:49.523Z,6.16
2019-02-02T10:16:54.745Z,6.16
2019-02-02T10:18:00.324Z,6.16
2019-02-02T10:19:06.228Z,6.18
2019-02-02T10:20:13.958Z,6.18
2019-02-02T10:21:19.187Z,6.19
2019-02-02T10:22:24.487Z,6.17
2019-02-02T10:23:29.667Z,6.17
2019-02-02T10:24:35.083Z,6.15
2019-02-02T10:25:41.160Z,6.15
2019-02-02T10:26:46.361Z,6.14
2019-02-02T10:27:53.091Z,6.12
2019-02-02T10:28:58.353Z,6.11
2019-02-02T10:30:04.188Z,6.12
2019-02-02T10:31:09.720Z,6.11
2019-02-02T10:32:14.962Z,6.10
2019-02-02T10:33:20.202Z,6.09
2019-02-02T10:34:25.547Z,6.08
2019-02-02T10:35:31.166Z,6.06
2019-02-02T10:36:36.216Z,6.06
2019-02-02T10:37:42.743Z,6.05
2019-02-02T10:38:48.015Z,6.05
2019-02-02T10:39:53.441Z,6.06
2019-02-02T10:40:59.043Z,6.06
2019-02-02T10:42:04.468Z,6.05
2019-02-02T10:43:13.093Z,6.03
2019-02-02T10:44:18.187Z,6.03
2019-02-02T10:45:23.377Z,6.05
2019-02-02T10:46:28.965Z,6.06
2019-02-02T10:47:35.691Z,6.04
2019-02-02T10:48:44.977Z,6.06
2019-02-02T10:49:50.393Z,6.07
2019-02-02T10:50:55.627Z,6.08
2019-02-02T10:52:02.493Z,6.08
2019-02-02T10:53:08.347Z,6.08
2019-02-02T10:54:13.884Z,6.10
2019-02-02T10:55:19.636Z,6.10
2019-02-02T10:56:25.167Z,6.09
2019-02-02T10:57:30.773Z,6.08
2019-02-02T10:58:36.003Z,6.07
2019-02-02T10:59:49.067Z,6.06
2019-02-02T11:00:54.581Z,6.03
2019-02-02T11:01:59.729Z,6.04
2019-02-02T11:03:05.519Z,6.03
2019-02-02T11:04:10.576Z,6.02
2019-02-02T11:05:16.514Z,6.01
2019-02-02T11:06:22.096Z,6.01
2019-02-02T11:07:27.769Z,6.01
2019-02-02T11:08:33.305Z,6.03
2019-02-02T11:09:38.785Z,6.04
2019-02-02T11:10:44.486Z,6.04
2019-02-02T11:11:49.720Z,6.04
2019-02-02T11:12:55.497Z,6.04
2019-02-02T11:14:00.728Z,6.04
2019-02-02T11:15:08.464Z,6.04
2019-02-02T11:16:13.776Z,6.04
2019-02-02T11:17:19.604Z,6.05
2019-02-02T11:18:24.894Z,6.05
2019-02-02T11:19:30.254Z,6.06
2019-02-02T11:20:36.306Z,6.07
2019-02-02T11:21:43.071Z,6.08
2019-02-02T11:22:48.906Z,6.07
2019-02-02T11:23:54.621Z,6.06
2019-02-02T11:24:59.921Z,6.07
2019-02-02T11:26:05.130Z,6.08
2019-02-02T11:27:12.546Z,6.08
2019-02-02T11:28:17.981Z,6.08
2019-02-02T11:29:23.745Z,6.09
2019-02-02T11:30:30.236Z,6.12
2019-02-02T11:31:36.175Z,6.10
2019-02-02T11:32:45.119Z,6.09
2019-02-02T11:33:51.044Z,6.07
2019-02-02T11:34:56.687Z,6.06
2019-02-02T11:36:01.803Z,6.04
2019-02-02T11:37:06.788Z,6.05
2019-02-02T11:38:11.822Z,6.04
2019-02-02T11:39:17.213Z,6.04
2019-02-02T11:40:26.377Z,6.02
2019-02-02T11:41:31.398Z,6.01
2019-02-02T11:42:36.452Z,5.98
2019-02-02T11:43:41.375Z,5.95
2019-02-02T11:44:46.709Z,5.93
2019-02-02T11:45:52.115Z,5.89
2019-02-02T11:46:57.175Z,5.88
2019-02-02T11:48:02.249Z,5.88
2019-02-02T11:49:07.264Z,5.88
2019-02-02T11:50:13.667Z,5.87
2019-02-02T11:51:18.882Z,5.87
2019-02-02T11:52:24.365Z,5.88
2019-02-02T11:53:29.358Z,5.88
2019-02-02T11:54:34.947Z,5.88
2019-02-02T11:55:40.030Z,5.87
2019-02-02T11:56:45.058Z,5.85
2019-02-02T11:57:50.329Z,5.86
2019-02-02T11:58:55.413Z,5.85
2019-02-02T12:00:00.674Z,5.86
2019-02-02T12:01:06.670Z,5.88
2019-02-02T12:02:14.882Z,5.90
2019-02-02T12:03:20.541Z,5.92
2019-02-02T12:04:26.153Z,5.90
2019-02-02T12:05:31.213Z,5.87
2019-02-02T12:06:36.811Z,5.87
2019-02-02T12:07:42.369Z,5.85
2019-02-02T12:08:49.331Z,5.84
2019-02-02T12:09:54.053Z,5.84
2019-02-02T12:10:59.082Z,5.84
2019-02-02T12:12:04.143Z,5.85
2019-02-02T12:13:09.146Z,5.86
2019-02-02T12:14:14.424Z,5.86
2019-02-02T12:15:20.059Z,5.86
2019-02-02T12:16:25.089Z,5.85
2019-02-02T12:17:30.225Z,5.84
2019-02-02T12:18:35.178Z,5.84
2019-02-02T12:19:41.234Z,5.84
2019-02-02T12:20:46.707Z,5.83
2019-02-02T12:21:52.066Z,5.81
2019-02-02T12:22:57.303Z,5.81
2019-02-02T12:24:13.381Z,5.79
2019-02-02T12:25:09.873Z,5.79
2019-02-02T12:26:15.250Z,5.79
2019-02-02T12:27:20.186Z,5.79
2019-02-02T12:28:25.291Z,5.79
2019-02-02T12:29:30.296Z,5.82
2019-02-02T12:30:36.320Z,5.82
2019-02-02T12:31:41.283Z,5.82
2019-02-02T12:32:46.379Z,5.83
2019-02-02T12:33:51.664Z,5.86
2019-02-02T12:34:56.959Z,5.85
2019-02-02T12:36:02.655Z,5.86
2019-02-02T12:37:07.818Z,5.86
2019-02-02T12:38:13.132Z,5.87
2019-02-02T12:41:24.464Z,5.89
2019-02-02T12:42:29.395Z,5.92
2019-02-02T12:43:34.901Z,5.92
2019-02-02T12:44:39.842Z,5.90
2019-02-02T12:45:50.487Z,5.87
2019-02-02T12:46:55.436Z,5.85
2019-02-02T12:48:00.576Z,5.84
2019-02-02T12:49:05.936Z,5.83
2019-02-02T12:50:12.360Z,5.83
2019-02-02T12:51:17.269Z,5.82
2019-02-02T12:52:25.302Z,5.84
2019-02-02T12:53:28.970Z,5.84
2019-02-02T12:54:33.961Z,5.87
2019-02-02T12:55:39.036Z,5.88
2019-02-02T12:56:43.979Z,5.89
2019-02-02T12:57:48.904Z,5.90
2019-02-02T12:58:54.225Z,5.91
2019-02-02T12:59:59.442Z,5.92
2019-02-02T13:01:04.529Z,5.93
2019-02-02T13:02:09.593Z,5.92
2019-02-02T13:03:14.515Z,5.91
2019-02-02T13:04:19.428Z,5.91
2019-02-02T13:05:24.826Z,5.89
2019-02-02T13:06:29.869Z,5.86
2019-02-02T13:07:34.894Z,5.85
2019-02-02T13:08:39.932Z,5.86
2019-02-02T13:09:45.186Z,5.87
2019-02-02T13:10:50.261Z,5.86
2019-02-02T13:11:56.176Z,5.88
2019-02-02T13:13:01.436Z,5.89
2019-02-02T13:14:06.524Z,5.91
2019-02-02T13:15:12.150Z,5.89
2019-02-02T13:16:17.353Z,5.87
2019-02-02T13:17:22.834Z,5.88
2019-02-02T13:18:27.739Z,5.90
2019-02-02T13:19:32.692Z,5.93
2019-02-02T13:20:37.764Z,5.96
2019-02-02T13:21:43.923Z,6.00
2019-02-02T13:22:49.211Z,6.00
2019-02-02T13:23:54.222Z,6.00
2019-02-02T13:24:59.154Z,6.00
2019-02-02T13:26:05.738Z,5.98
2019-02-02T13:27:10.715Z,5.96
2019-02-02T13:28:15.728Z,5.95
2019-02-02T13:29:20.659Z,5.96
2019-02-02T13:30:28.075Z,5.94
2019-02-02T13:31:33.116Z,5.91
2019-02-02T13:32:49.159Z,5.89
2019-02-02T13:33:44.867Z,5.89
2019-02-02T13:34:49.867Z,5.87
2019-02-02T13:35:54.863Z,5.86
2019-02-02T13:36:59.910Z,5.85
2019-02-02T13:38:05.744Z,5.81
2019-02-02T13:39:12.417Z,5.79
2019-02-02T13:40:19.125Z,5.76
2019-02-02T13:41:24.053Z,5.74
2019-02-02T13:42:29.049Z,5.71
2019-02-02T13:43:34.071Z,5.68
2019-02-02T13:44:39.142Z,5.67
2019-02-02T13:45:44.070Z,5.65
2019-02-02T13:46:49.058Z,5.63
2019-02-02T13:47:54.060Z,5.62
2019-02-02T13:48:58.968Z,5.61
2019-02-02T13:50:05.212Z,5.61
2019-02-02T13:51:10.589Z,5.62
2019-02-02T13:52:15.921Z,5.64
2019-02-02T13:53:21.262Z,5.66
2019-02-02T13:54:26.432Z,5.65
2019-02-02T13:55:31.503Z,5.66
2019-02-02T13:56:36.472Z,5.65
2019-02-02T13:57:42.004Z,5.67
2019-02-02T13:58:47.291Z,5.66
2019-02-02T13:59:52.239Z,5.64
2019-02-02T14:00:57.598Z,5.65
2019-02-02T14:02:02.562Z,5.65
2019-02-02T14:03:07.741Z,5.64
2019-02-02T14:04:12.796Z,5.64
2019-02-02T14:05:18.400Z,5.62
2019-02-02T14:06:23.429Z,5.62
2019-02-02T14:07:28.334Z,5.63
2019-02-02T14:08:33.276Z,5.65
2019-02-02T14:09:38.748Z,5.68
2019-02-02T14:10:44.125Z,5.70
2019-02-02T14:11:49.406Z,5.74
2019-02-02T14:12:54.490Z,5.74
2019-02-02T14:13:59.421Z,5.73
2019-02-02T14:15:05.135Z,5.75
2019-02-02T14:16:10.114Z,5.74
2019-02-02T14:17:15.088Z,5.76
2019-02-02T14:18:20.107Z,5.76
2019-02-02T14:19:25.198Z,5.75
2019-02-02T14:20:30.207Z,5.75
2019-02-02T14:21:35.248Z,5.75
2019-02-02T14:22:40.301Z,5.74
2019-02-02T14:23:45.527Z,5.72
2019-02-02T14:24:50.584Z,5.72
2019-02-02T14:26:14.721Z,5.73
2019-02-02T14:27:19.800Z,5.71
2019-02-02T14:28:28.463Z,5.70
2019-02-02T14:29:32.066Z,5.68
2019-02-02T14:30:37.103Z,5.65
2019-02-02T14:31:42.106Z,5.66
2019-02-02T14:32:47.508Z,5.64
2019-02-02T14:33:52.409Z,5.64
2019-02-02T14:34:57.382Z,5.62